Terminal Aerodrome Forecast
Issued by NWS

Home | Current Version | Previous Version | Graphics & Text | Print | Product List | Glossary On
Versions: 1 2 3 4 5 6 7 8 9 10 11 12 13 14 15 16 17 18
000
FTUS42 KMHX 250236 AAA
TAFOAJ
TAF AMD
KOAJ 250236Z 2503/2524 08005KT P6SM SCT250
     FM250600 07005KT P6SM OVC050
     FM251600 08005KT P6SM OVC050
     FM251900 13005KT P6SM OVC050
      AMD LTD TO CLD VIS AND WIND=

USA.gov is the U.S. government's official web portal to all federal, state and local government web resources and services.